createdAt,value
2022-08-08T00:00:59.676Z,98977.38
2022-08-08T00:03:31.772Z,98973.31
2022-08-08T00:06:08.106Z,98981.19
2022-08-08T00:09:01.793Z,98980.25
2022-08-08T00:12:02.947Z,98981.97
2022-08-08T00:14:59.017Z,98979.03
2022-08-08T00:17:58.680Z,98976.25
2022-08-08T00:20:19.999Z,98974.38
2022-08-08T00:22:47.407Z,98975.94
2022-08-08T00:25:17.279Z,98978.63
2022-08-08T00:27:44.011Z,98974.84
2022-08-08T00:30:11.318Z,98979.25
2022-08-08T00:32:46.728Z,98979.72
2022-08-08T00:35:21.039Z,98978.47
2022-08-08T00:38:02.152Z,98981.25
2022-08-08T00:41:12.952Z,98978.47
2022-08-08T00:43:21.470Z,98978.50
2022-08-08T00:45:57.910Z,98969.56
2022-08-08T00:48:59.273Z,98965.94
2022-08-08T00:51:38.347Z,98968.47
2022-08-08T00:54:16.196Z,98968.03
2022-08-08T00:56:42.555Z,98966.66
2022-08-08T00:59:44.069Z,98967.44
2022-08-08T01:03:53.974Z,98959.91
2022-08-08T01:05:58.644Z,98969.50
2022-08-08T01:08:28.790Z,98958.03
2022-08-08T01:11:15.247Z,98963.16
2022-08-08T01:14:05.009Z,98969.09
2022-08-08T01:16:53.692Z,98968.44
2022-08-08T01:19:52.376Z,98961.56
2022-08-08T01:22:35.380Z,98957.41
2022-08-08T01:25:26.342Z,98959.88
2022-08-08T01:28:06.157Z,98962.56
2022-08-08T01:30:53.422Z,98963.22
2022-08-08T01:34:00.498Z,98967.53
2022-08-08T01:36:42.984Z,98973.56
2022-08-08T01:39:41.795Z,98972.19
2022-08-08T01:42:15.032Z,98970.56
2022-08-08T01:44:53.541Z,98967.88
2022-08-08T01:48:14.277Z,98962.94
2022-08-08T01:50:30.134Z,98964.47
2022-08-08T01:54:18.916Z,98967.53
2022-08-08T01:56:28.109Z,98958.59
2022-08-08T01:58:46.982Z,98962.03
2022-08-08T02:01:21.219Z,98967.69
2022-08-08T02:03:57.570Z,98970.41
2022-08-08T02:06:43.394Z,98960.31
2022-08-08T02:10:01.554Z,98959.25
2022-08-08T02:12:12.615Z,98956.63
2022-08-08T02:14:59.481Z,98960.13
2022-08-08T02:17:36.813Z,98955.59
2022-08-08T02:20:16.169Z,98958.03
2022-08-08T02:23:09.506Z,98956.97
2022-08-08T02:25:58.959Z,98966.88
2022-08-08T02:28:48.593Z,98969.19
2022-08-08T02:31:59.178Z,98963.81
2022-08-08T02:34:33.006Z,98960.94
2022-08-08T02:37:53.256Z,98966.00
2022-08-08T02:40:05.729Z,98959.94
2022-08-08T02:44:34.671Z,98966.63
2022-08-08T02:45:51.508Z,98958.59
2022-08-08T02:48:39.045Z,98963.44
2022-08-08T02:51:30.525Z,98961.66
2022-08-08T02:54:16.885Z,98967.13
2022-08-08T02:56:47.702Z,98963.16
2022-08-08T02:59:56.864Z,98959.19
2022-08-08T03:02:31.276Z,98960.81
2022-08-08T03:05:16.750Z,98953.25
2022-08-08T03:07:58.598Z,98965.31
2022-08-08T03:10:32.590Z,98961.00
2022-08-08T03:13:34.129Z,98967.66
2022-08-08T03:16:35.911Z,98965.75
2022-08-08T03:19:06.568Z,98963.22
2022-08-08T03:21:40.713Z,98971.22
2022-08-08T03:24:20.043Z,98972.78
2022-08-08T03:26:49.417Z,98975.38
2022-08-08T03:29:20.603Z,98971.94
2022-08-08T03:32:11.985Z,98971.72
2022-08-08T03:34:40.529Z,98971.78
2022-08-08T03:37:20.061Z,98965.31
2022-08-08T03:40:00.450Z,98975.06
2022-08-08T03:42:30.491Z,98982.88
2022-08-08T03:44:57.318Z,98971.94
2022-08-08T03:47:25.810Z,98976.59
2022-08-08T03:50:06.725Z,98974.19
2022-08-08T03:52:45.075Z,98982.06
2022-08-08T03:55:19.979Z,98989.94
2022-08-08T03:58:35.843Z,98987.16
2022-08-08T04:01:01.687Z,98982.78
2022-08-08T04:03:56.900Z,98986.00
2022-08-08T04:06:20.201Z,98992.75
2022-08-08T04:08:46.557Z,99000.53
2022-08-08T04:11:17.402Z,98992.63
2022-08-08T04:14:03.755Z,98995.72
2022-08-08T04:16:38.922Z,98995.97
2022-08-08T04:19:23.950Z,98998.59
2022-08-08T04:21:51.677Z,98996.38
2022-08-08T04:24:28.856Z,99000.44
2022-08-08T04:26:58.676Z,98995.78
2022-08-08T04:29:25.555Z,99000.22
2022-08-08T04:31:59.474Z,99005.63
2022-08-08T04:34:31.735Z,99011.00
2022-08-08T04:36:58.855Z,99007.50
2022-08-08T04:40:04.022Z,99009.75
2022-08-08T04:42:15.928Z,99014.84
2022-08-08T04:44:43.499Z,99018.69
2022-08-08T04:47:14.306Z,99008.66
2022-08-08T04:49:58.592Z,99019.16
2022-08-08T04:52:33.776Z,99020.34
2022-08-08T04:55:01.736Z,99018.06
2022-08-08T04:57:28.267Z,99024.66
2022-08-08T04:59:55.173Z,99024.69
2022-08-08T05:02:30.828Z,99031.28
2022-08-08T05:04:59.380Z,99029.03
2022-08-08T05:07:26.423Z,99034.88
2022-08-08T05:09:52.805Z,99030.22
2022-08-08T05:12:21.354Z,99039.09
2022-08-08T05:14:55.471Z,99036.03
2022-08-08T05:17:23.151Z,99039.72
2022-08-08T05:20:10.794Z,99048.41
2022-08-08T05:22:36.117Z,99043.31
2022-08-08T05:25:02.537Z,99049.94
2022-08-08T05:27:33.091Z,99044.50
2022-08-08T05:29:59.981Z,99043.50
2022-08-08T05:32:27.231Z,99043.22
2022-08-08T05:34:56.520Z,99049.22
2022-08-08T05:37:39.057Z,99044.50
2022-08-08T05:40:14.685Z,99040.22
2022-08-08T05:42:41.966Z,99054.47
2022-08-08T05:45:10.365Z,99045.00
2022-08-08T05:48:00.516Z,99047.84
2022-08-08T05:50:28.839Z,99050.56
2022-08-08T05:52:55.373Z,99048.66
2022-08-08T05:55:21.772Z,99047.06
2022-08-08T05:58:04.977Z,99054.28
2022-08-08T06:00:34.122Z,99055.34
2022-08-08T06:03:10.527Z,99052.03
2022-08-08T06:05:44.048Z,99060.72
2022-08-08T06:08:33.115Z,99058.41
2022-08-08T06:10:57.867Z,99061.69
2022-08-08T06:13:24.260Z,99061.44
2022-08-08T06:15:56.668Z,99063.34
2022-08-08T06:18:25.886Z,99061.56
2022-08-08T06:20:57.218Z,99070.09
2022-08-08T06:23:32.676Z,99068.53
2022-08-08T06:26:43.058Z,99066.19
2022-08-08T06:29:02.366Z,99078.31
2022-08-08T06:31:52.587Z,99074.72
2022-08-08T06:34:26.013Z,99085.22
2022-08-08T06:36:55.408Z,99081.56
2022-08-08T06:39:23.275Z,99077.50
2022-08-08T06:41:49.585Z,99086.38
2022-08-08T06:44:22.826Z,99088.31
2022-08-08T06:46:52.369Z,99090.41
2022-08-08T06:49:18.988Z,99087.59
2022-08-08T06:52:05.322Z,99087.59
2022-08-08T06:54:31.695Z,99092.91
2022-08-08T06:56:59.152Z,99098.53
2022-08-08T06:59:25.509Z,99096.91
2022-08-08T07:02:26.611Z,99102.94
2022-08-08T07:04:52.804Z,99101.34
2022-08-08T07:07:20.538Z,99099.72
2022-08-08T07:09:59.325Z,99107.00
2022-08-08T07:12:35.869Z,99111.44
2022-08-08T07:15:04.341Z,99103.75
2022-08-08T07:17:40.236Z,99113.44
2022-08-08T07:20:21.243Z,99115.38
2022-08-08T07:22:59.107Z,99110.94
2022-08-08T07:25:31.895Z,99110.03
2022-08-08T07:28:18.645Z,99111.66
2022-08-08T07:30:46.162Z,99114.44
2022-08-08T07:33:17.686Z,99114.44
2022-08-08T07:35:46.218Z,99104.88
2022-08-08T07:38:20.520Z,99114.81
2022-08-08T07:40:48.309Z,99120.50
2022-08-08T07:43:16.980Z,99114.09
2022-08-08T07:46:17.935Z,99120.53
2022-08-08T07:48:45.525Z,99127.03
2022-08-08T07:51:24.001Z,99126.94
2022-08-08T07:54:05.176Z,99128.41
2022-08-08T07:56:35.532Z,99128.19
2022-08-08T07:59:03.285Z,99128.00
2022-08-08T08:02:37.188Z,99129.06
2022-08-08T08:04:16.273Z,99134.50
2022-08-08T08:06:43.435Z,99136.97
2022-08-08T08:09:12.762Z,99134.50
2022-08-08T08:11:51.765Z,99144.16
2022-08-08T08:14:25.694Z,99137.72
2022-08-08T08:16:52.051Z,99143.50
2022-08-08T08:19:18.394Z,99140.81
2022-08-08T08:21:57.187Z,99143.84
2022-08-08T08:24:30.814Z,99147.81
2022-08-08T08:26:58.715Z,99147.22
2022-08-08T08:29:27.772Z,99142.66
2022-08-08T08:31:57.903Z,99148.13
2022-08-08T08:34:24.847Z,99152.03
2022-08-08T08:36:59.036Z,99151.00
2022-08-08T08:39:25.427Z,99148.38
2022-08-08T08:42:11.716Z,99146.22
2022-08-08T08:44:39.787Z,99153.53
2022-08-08T08:47:08.774Z,99148.34
2022-08-08T08:49:36.789Z,99151.91
2022-08-08T08:52:09.991Z,99154.97
2022-08-08T08:54:36.581Z,99148.59
2022-08-08T08:57:09.308Z,99155.78
2022-08-08T08:59:59.951Z,99152.25
2022-08-08T09:02:29.752Z,99165.00
2022-08-08T09:04:57.306Z,99158.06
2022-08-08T09:07:23.976Z,99161.47
2022-08-08T09:10:07.516Z,99155.31
2022-08-08T09:12:40.031Z,99158.72
2022-08-08T09:15:11.717Z,99152.97
2022-08-08T09:17:41.742Z,99161.13
2022-08-08T09:22:01.479Z,99160.88
2022-08-08T09:23:05.278Z,99158.66
2022-08-08T09:25:54.741Z,99157.03
2022-08-08T09:28:35.576Z,99154.59
2022-08-08T09:31:12.477Z,99148.31
2022-08-08T09:34:15.303Z,99155.00
2022-08-08T09:36:25.842Z,99160.72
2022-08-08T09:38:55.437Z,99154.19
2022-08-08T09:41:55.095Z,99150.72
2022-08-08T09:44:36.371Z,99148.41
2022-08-08T09:48:02.444Z,99146.56
2022-08-08T09:49:52.138Z,99150.44
2022-08-08T09:52:56.348Z,99156.03
2022-08-08T09:55:09.012Z,99165.09
2022-08-08T09:57:46.213Z,99149.41
2022-08-08T10:00:47.891Z,99149.63
2022-08-08T10:02:59.986Z,99142.41
2022-08-08T10:05:28.010Z,99152.38
2022-08-08T10:08:01.333Z,99154.09
2022-08-08T10:10:49.798Z,99143.84
2022-08-08T10:13:17.915Z,99140.75
2022-08-08T10:16:00.598Z,99138.06
2022-08-08T10:18:31.874Z,99141.13
2022-08-08T10:21:22.778Z,99144.84
2022-08-08T10:23:58.136Z,99144.69
2022-08-08T10:26:30.517Z,99148.66
2022-08-08T10:29:22.743Z,99143.84
2022-08-08T10:32:08.503Z,99139.03
2022-08-08T10:34:35.004Z,99142.63
2022-08-08T10:37:01.356Z,99147.00
2022-08-08T10:39:31.434Z,99155.88
2022-08-08T10:42:13.140Z,99148.41
2022-08-08T10:44:41.994Z,99150.19
2022-08-08T10:47:09.071Z,99139.31
2022-08-08T10:50:02.024Z,99146.06
2022-08-08T10:52:31.131Z,99136.59
2022-08-08T10:54:58.492Z,99142.13
2022-08-08T10:57:27.618Z,99148.28
2022-08-08T11:00:12.382Z,99149.06
2022-08-08T11:02:38.758Z,99153.25
2022-08-08T11:05:14.921Z,99146.69
2022-08-08T11:08:31.794Z,99136.19
2022-08-08T11:10:34.339Z,99144.59
2022-08-08T11:13:28.693Z,99141.50
2022-08-08T11:15:59.005Z,99139.41
2022-08-08T11:18:27.954Z,99148.22
2022-08-08T11:20:57.461Z,99150.09
2022-08-08T11:23:25.030Z,99145.16
2022-08-08T11:25:57.817Z,99143.59
2022-08-08T11:28:29.303Z,99142.41
2022-08-08T11:30:57.953Z,99143.19
2022-08-08T11:33:53.500Z,99139.69
2022-08-08T11:36:14.408Z,99133.31
2022-08-08T11:38:55.655Z,99127.91
2022-08-08T11:41:23.293Z,99131.19
2022-08-08T11:43:50.811Z,99124.13
2022-08-08T11:46:17.619Z,99133.03
2022-08-08T11:48:47.373Z,99132.19
2022-08-08T11:51:29.974Z,99132.16
2022-08-08T11:54:01.991Z,99129.19
2022-08-08T11:56:31.947Z,99108.94
2022-08-08T11:59:08.030Z,99118.56
2022-08-08T12:01:36.139Z,99126.06
2022-08-08T12:04:03.793Z,99121.25
2022-08-08T12:06:31.924Z,99134.84
2022-08-08T12:09:05.183Z,99128.44
2022-08-08T12:11:36.971Z,99136.84
2022-08-08T12:14:04.691Z,99138.78
2022-08-08T12:16:39.591Z,99136.78
2022-08-08T12:19:13.489Z,99134.09
2022-08-08T12:22:00.086Z,99127.53
2022-08-08T12:24:27.607Z,99122.09
2022-08-08T12:26:54.769Z,99120.69
2022-08-08T12:29:41.375Z,99118.00
2022-08-08T12:32:13.357Z,99119.31
2022-08-08T12:34:44.747Z,99124.59
2022-08-08T12:37:12.234Z,99123.53
2022-08-08T12:40:01.851Z,99130.69
2022-08-08T12:42:27.397Z,99120.66
2022-08-08T12:45:19.882Z,99124.13
2022-08-08T12:48:10.290Z,99119.41
2022-08-08T12:50:46.892Z,99127.25
2022-08-08T12:53:35.172Z,99124.22
2022-08-08T12:56:18.955Z,99121.16
2022-08-08T12:58:50.662Z,99115.03
2022-08-08T13:01:34.654Z,99120.81
2022-08-08T13:04:33.084Z,99118.25
2022-08-08T13:07:11.889Z,99111.81
2022-08-08T13:10:04.233Z,99116.63
2022-08-08T13:12:33.732Z,99119.09
2022-08-08T13:15:02.280Z,99117.31
2022-08-08T13:18:07.577Z,99120.44
2022-08-08T13:20:18.188Z,99113.47
2022-08-08T13:22:44.867Z,99111.25
2022-08-08T13:25:21.190Z,99119.91
2022-08-08T13:27:52.509Z,99109.31
2022-08-08T13:30:26.378Z,99114.84
2022-08-08T13:32:54.836Z,99117.38
2022-08-08T13:35:24.881Z,99106.22
2022-08-08T13:38:06.921Z,99107.75
2022-08-08T13:40:35.069Z,99110.56
2022-08-08T13:43:01.992Z,99106.63
2022-08-08T13:45:30.870Z,99109.91
2022-08-08T13:47:58.293Z,99107.63
2022-08-08T13:50:34.978Z,99106.94
2022-08-08T13:53:23.087Z,99104.63
2022-08-08T13:55:59.445Z,99113.03
2022-08-08T13:58:28.927Z,99103.50
2022-08-08T14:00:55.686Z,99105.63
2022-08-08T14:03:52.961Z,99106.22
2022-08-08T14:06:32.156Z,99107.13
2022-08-08T14:09:00.178Z,99111.78
2022-08-08T14:11:29.509Z,99108.97
2022-08-08T14:14:00.452Z,99111.44
2022-08-08T14:16:27.526Z,99112.97
2022-08-08T14:18:54.761Z,99108.97
2022-08-08T14:21:22.320Z,99118.34
2022-08-08T14:24:07.184Z,99111.13
2022-08-08T14:26:46.205Z,99113.78
2022-08-08T14:29:26.912Z,99111.50
2022-08-08T14:32:11.040Z,99111.22
2022-08-08T14:34:42.397Z,99110.81
2022-08-08T14:37:09.536Z,99110.81
2022-08-08T14:40:05.789Z,99110.38
2022-08-08T14:42:55.162Z,99111.03
2022-08-08T14:45:29.043Z,99105.97
2022-08-08T14:48:10.589Z,99104.31
2022-08-08T14:50:39.052Z,99104.53
2022-08-08T14:53:15.230Z,99104.22
2022-08-08T14:55:43.014Z,99098.34
2022-08-08T14:58:11.719Z,99095.09
2022-08-08T15:00:44.273Z,99090.19
2022-08-08T15:03:14.551Z,99092.56
2022-08-08T15:05:53.184Z,99099.88
2022-08-08T15:08:33.904Z,99098.28
2022-08-08T15:11:02.192Z,99092.28
2022-08-08T15:13:39.629Z,99090.84
2022-08-08T15:16:12.214Z,99101.63
2022-08-08T15:18:40.847Z,99091.22
2022-08-08T15:21:16.624Z,99086.88
2022-08-08T15:23:43.267Z,99087.69
2022-08-08T15:26:13.039Z,99085.81
2022-08-08T15:28:39.603Z,99080.41
2022-08-08T15:31:06.050Z,99083.00
2022-08-08T15:33:38.595Z,99082.50
2022-08-08T15:36:21.130Z,99084.09
2022-08-08T15:38:55.232Z,99084.75
2022-08-08T15:41:24.556Z,99087.88
2022-08-08T15:44:00.702Z,99085.03
2022-08-08T15:46:35.445Z,99083.78
2022-08-08T15:49:02.027Z,99089.72
2022-08-08T15:51:33.671Z,99081.31
2022-08-08T15:54:00.687Z,99097.56
2022-08-08T15:56:27.048Z,99085.09
2022-08-08T15:58:53.404Z,99093.97
2022-08-08T16:01:20.935Z,99091.97
2022-08-08T16:03:52.008Z,99090.50
2022-08-08T16:06:28.505Z,99084.09
2022-08-08T16:09:02.458Z,99082.78
2022-08-08T16:13:10.887Z,99092.63
2022-08-08T16:14:32.591Z,99094.72
2022-08-08T16:17:00.132Z,99086.38
2022-08-08T16:19:26.908Z,99092.13
2022-08-08T16:21:53.997Z,99092.56
2022-08-08T16:24:22.897Z,99088.25
2022-08-08T16:26:49.302Z,99090.03
2022-08-08T16:29:37.111Z,99085.97
2022-08-08T16:32:04.237Z,99078.66
2022-08-08T16:34:37.681Z,99076.25
2022-08-08T16:37:05.282Z,99080.00
2022-08-08T16:40:01.429Z,99078.97
2022-08-08T16:42:18.893Z,99083.91
2022-08-08T16:44:54.664Z,99077.53
2022-08-08T16:47:40.728Z,99079.97
2022-08-08T16:50:13.189Z,99084.50
2022-08-08T16:55:18.133Z,99082.50
2022-08-08T16:55:53.405Z,99082.13
2022-08-08T16:58:17.871Z,99080.09
2022-08-08T17:00:49.242Z,99078.66
2022-08-08T17:03:25.534Z,99080.28
2022-08-08T17:06:04.778Z,99078.31
2022-08-08T17:08:31.131Z,99080.34
2022-08-08T17:10:59.499Z,99082.59
2022-08-08T17:13:41.099Z,99088.09
2022-08-08T17:16:16.791Z,99093.78
2022-08-08T17:18:45.517Z,99093.75
2022-08-08T17:21:12.163Z,99089.66
2022-08-08T17:23:58.338Z,99097.44
2022-08-08T17:26:29.241Z,99097.06
2022-08-08T17:28:55.850Z,99099.56
2022-08-08T17:31:44.225Z,99112.00
2022-08-08T17:34:53.906Z,99114.03
2022-08-08T17:37:02.853Z,99117.72
2022-08-08T17:40:05.105Z,99120.88
2022-08-08T17:42:16.592Z,99115.69
2022-08-08T17:44:44.955Z,99112.88
2022-08-08T17:47:23.391Z,99119.34
2022-08-08T17:49:51.603Z,99119.41
2022-08-08T17:52:19.027Z,99124.25
2022-08-08T17:54:46.358Z,99127.50
2022-08-08T17:57:14.256Z,99132.72
2022-08-08T17:59:45.301Z,99122.28
2022-08-08T18:02:16.453Z,99129.94
2022-08-08T18:04:50.511Z,99125.09
2022-08-08T18:08:02.690Z,99133.22
2022-08-08T18:10:03.813Z,99130.34
2022-08-08T18:12:30.511Z,99131.97
2022-08-08T18:14:57.554Z,99138.06
2022-08-08T18:18:04.809Z,99127.16
2022-08-08T18:20:43.192Z,99135.22
2022-08-08T18:22:59.522Z,99134.41
2022-08-08T18:25:25.902Z,99137.63
2022-08-08T18:27:54.953Z,99134.81
2022-08-08T18:30:21.318Z,99130.38
2022-08-08T18:32:48.545Z,99140.03
2022-08-08T18:35:17.506Z,99134.38
2022-08-08T18:37:48.010Z,99137.19
2022-08-08T18:40:15.122Z,99145.16
2022-08-08T18:42:45.732Z,99152.38
2022-08-08T18:46:00.271Z,99154.31
2022-08-08T18:48:03.095Z,99145.41
2022-08-08T18:50:34.799Z,99151.00
2022-08-08T18:53:06.147Z,99155.69
2022-08-08T18:55:33.690Z,99154.75
2022-08-08T18:58:00.096Z,99156.88
2022-08-08T19:00:26.447Z,99167.56
2022-08-08T19:02:56.165Z,99167.59
2022-08-08T19:05:32.103Z,99159.91
2022-08-08T19:08:02.958Z,99162.66
2022-08-08T19:10:30.575Z,99174.69
2022-08-08T19:12:57.801Z,99175.78
2022-08-08T19:15:33.703Z,99182.59
2022-08-08T19:18:32.689Z,99187.75
2022-08-08T19:20:47.114Z,99186.47
2022-08-08T19:23:13.499Z,99194.16
2022-08-08T19:26:20.444Z,99198.97
2022-08-08T19:28:26.781Z,99201.97
2022-08-08T19:31:03.799Z,99208.34
2022-08-08T19:33:52.010Z,99204.09
2022-08-08T19:36:27.367Z,99209.19
2022-08-08T19:38:54.570Z,99205.72
2022-08-08T19:41:21.506Z,99208.09
2022-08-08T19:44:03.497Z,99204.00
2022-08-08T19:46:33.186Z,99207.28
2022-08-08T19:49:00.650Z,99214.09
2022-08-08T19:51:34.278Z,99209.66
2022-08-08T19:54:01.458Z,99213.50
2022-08-08T19:56:39.959Z,99210.97
2022-08-08T19:59:08.176Z,99206.38
2022-08-08T20:02:01.693Z,99208.16
2022-08-08T20:04:21.001Z,99214.63
2022-08-08T20:06:50.874Z,99212.31
2022-08-08T20:09:23.009Z,99215.50
2022-08-08T20:11:50.087Z,99226.69
2022-08-08T20:14:36.196Z,99220.91
2022-08-08T20:17:04.141Z,99224.63
2022-08-08T20:19:34.266Z,99227.13
2022-08-08T20:22:04.754Z,99229.00
2022-08-08T20:24:31.622Z,99231.31
2022-08-08T20:26:57.963Z,99233.22
2022-08-08T20:29:25.894Z,99226.03
2022-08-08T20:32:14.179Z,99236.97
2022-08-08T20:34:47.863Z,99231.06
2022-08-08T20:37:20.022Z,99238.28
2022-08-08T20:39:51.868Z,99233.47
2022-08-08T20:42:19.304Z,99238.16
2022-08-08T20:44:46.839Z,99234.09
2022-08-08T20:47:22.681Z,99238.75
2022-08-08T20:49:50.595Z,99237.63
2022-08-08T20:52:21.099Z,99234.63
2022-08-08T20:54:47.547Z,99231.38
2022-08-08T20:57:17.434Z,99237.66
2022-08-08T20:59:45.733Z,99236.53
2022-08-08T21:02:19.580Z,99233.81
2022-08-08T21:04:51.951Z,99238.41
2022-08-08T21:07:30.925Z,99232.25
2022-08-08T21:10:12.329Z,99233.75
2022-08-08T21:12:39.598Z,99232.00
2022-08-08T21:15:11.299Z,99238.41
2022-08-08T21:17:43.162Z,99242.88
2022-08-08T21:20:11.561Z,99248.88
2022-08-08T21:22:38.593Z,99240.09
2022-08-08T21:25:05.856Z,99245.16
2022-08-08T21:28:09.145Z,99241.91
2022-08-08T21:30:26.410Z,99249.56
2022-08-08T21:32:53.513Z,99239.28
2022-08-08T21:36:13.761Z,99242.13
2022-08-08T21:38:16.455Z,99254.38
2022-08-08T21:40:54.796Z,99251.44
2022-08-08T21:43:23.286Z,99244.72
2022-08-08T21:48:03.731Z,99244.97
2022-08-08T21:48:41.802Z,99233.06
2022-08-08T21:51:11.127Z,99246.56
2022-08-08T21:54:27.209Z,99231.00
2022-08-08T21:56:34.155Z,99241.84
2022-08-08T21:59:09.852Z,99245.81
2022-08-08T22:01:41.217Z,99243.56
2022-08-08T22:04:10.529Z,99245.91
2022-08-08T22:06:38.129Z,99246.81
2022-08-08T22:09:08.356Z,99245.47
2022-08-08T22:11:51.100Z,99248.56
2022-08-08T22:14:21.655Z,99243.28
2022-08-08T22:16:47.998Z,99247.53
2022-08-08T22:19:19.879Z,99251.53
2022-08-08T22:21:50.616Z,99250.78
2022-08-08T22:24:17.275Z,99246.09
2022-08-08T22:27:02.356Z,99252.28
2022-08-08T22:30:00.954Z,99247.13
2022-08-08T22:32:16.077Z,99256.63
2022-08-08T22:34:45.144Z,99256.41
2022-08-08T22:37:49.041Z,99252.94
2022-08-08T22:40:04.501Z,99250.94
2022-08-08T22:42:31.945Z,99248.97
2022-08-08T22:45:01.104Z,99252.53
2022-08-08T22:47:37.576Z,99250.19
2022-08-08T22:50:21.677Z,99258.09
2022-08-08T22:53:22.543Z,99258.72
2022-08-08T22:55:59.191Z,99262.25
2022-08-08T22:58:27.077Z,99269.13
2022-08-08T23:00:55.280Z,99273.81
2022-08-08T23:03:21.709Z,99264.06
2022-08-08T23:05:49.594Z,99268.88
2022-08-08T23:08:18.046Z,99263.13
2022-08-08T23:10:46.454Z,99269.72
2022-08-08T23:13:19.516Z,99266.41
2022-08-08T23:16:37.815Z,99275.56
2022-08-08T23:18:34.765Z,99268.72
2022-08-08T23:21:04.486Z,99263.84
2022-08-08T23:23:32.545Z,99270.25
2022-08-08T23:26:15.304Z,99276.03
2022-08-08T23:28:41.681Z,99266.91
2022-08-08T23:31:08.052Z,99267.66
2022-08-08T23:34:18.879Z,99264.13
2022-08-08T23:36:24.293Z,99264.22
2022-08-08T23:38:52.927Z,99258.00
2022-08-08T23:41:24.847Z,99263.88
2022-08-08T23:43:54.073Z,99261.88
2022-08-08T23:49:03.892Z,99267.03
2022-08-08T23:49:15.541Z,99272.44
2022-08-08T23:52:05.239Z,99268.31
2022-08-08T23:54:41.430Z,99264.50
2022-08-08T23:57:25.474Z,99267.56
